createdAt,value
2018-09-18T00:01:51.398Z,3.27
2018-09-18T00:04:22.202Z,3.30
2018-09-18T00:06:52.269Z,3.57
2018-09-18T00:09:21.862Z,3.70
2018-09-18T00:11:52.964Z,3.93
2018-09-18T00:14:21.854Z,3.40
2018-09-18T00:16:50.875Z,3.80
2018-09-18T00:19:23.942Z,3.63
2018-09-18T00:21:54.775Z,4.23
2018-09-18T00:24:24.167Z,3.60
2018-09-18T00:26:54.388Z,4.27
2018-09-18T00:29:24.249Z,3.80
2018-09-18T00:31:57.051Z,3.80
2018-09-18T00:34:25.925Z,4.10
2018-09-18T00:36:55.292Z,3.80
2018-09-18T00:39:25.006Z,4.27
2018-09-18T00:41:54.047Z,4.47
2018-09-18T00:44:23.396Z,4.07
2018-09-18T00:46:52.520Z,4.43
2018-09-18T00:49:22.387Z,4.40
2018-09-18T00:51:53.712Z,4.73
2018-09-18T00:54:23.223Z,4.60
2018-09-18T00:56:59.062Z,4.77
2018-09-18T00:59:27.989Z,4.70
2018-09-18T01:01:57.037Z,4.43
2018-09-18T01:04:26.075Z,5.00
2018-09-18T01:06:55.685Z,4.67
2018-09-18T01:09:24.985Z,4.60
2018-09-18T01:11:54.936Z,4.90
2018-09-18T01:14:24.916Z,4.63
2018-09-18T01:16:54.319Z,4.83
2018-09-18T01:19:23.726Z,4.47
2018-09-18T01:21:53.962Z,4.20
2018-09-18T01:24:23.044Z,4.50
2018-09-18T01:26:52.117Z,4.20
2018-09-18T01:29:21.171Z,4.50
2018-09-18T01:31:50.836Z,4.60
2018-09-18T01:34:20.969Z,4.40
2018-09-18T01:36:50.771Z,4.10
2018-09-18T01:39:19.674Z,4.50
2018-09-18T01:41:48.659Z,4.50
2018-09-18T01:44:17.582Z,3.93
2018-09-18T01:46:46.626Z,4.47
2018-09-18T01:49:16.384Z,4.23
2018-09-18T01:51:45.172Z,4.60
2018-09-18T01:54:13.938Z,4.10
2018-09-18T01:56:42.964Z,4.53
2018-09-18T01:59:12.142Z,4.30
2018-09-18T02:01:40.931Z,4.60
2018-09-18T02:04:09.578Z,4.93
2018-09-18T02:06:40.487Z,4.20
2018-09-18T02:09:11.128Z,4.40
2018-09-18T02:11:39.764Z,4.63
2018-09-18T02:14:08.712Z,4.33
2018-09-18T02:16:37.727Z,4.57
2018-09-18T02:19:06.599Z,4.47
2018-09-18T02:21:35.355Z,4.23
2018-09-18T02:24:04.275Z,4.07
2018-09-18T02:26:33.375Z,4.43
2018-09-18T02:29:02.738Z,4.00
2018-09-18T02:31:31.456Z,4.13
2018-09-18T02:34:00.481Z,5.17
2018-09-18T02:36:29.580Z,3.80
2018-09-18T02:38:58.927Z,4.00
2018-09-18T02:41:27.835Z,3.90
2018-09-18T02:43:56.863Z,3.77
2018-09-18T02:46:25.701Z,3.83
2018-09-18T02:48:54.646Z,4.23
2018-09-18T02:51:24.830Z,4.50
2018-09-18T02:53:53.730Z,4.27
2018-09-18T02:56:22.755Z,4.33
2018-09-18T02:58:52.222Z,4.27
2018-09-18T03:01:21.604Z,3.83
2018-09-18T03:03:50.382Z,4.03
2018-09-18T03:06:18.907Z,4.60
2018-09-18T03:08:48.126Z,4.20
2018-09-18T03:11:17.173Z,4.47
2018-09-18T03:13:45.818Z,4.27
2018-09-18T03:16:15.421Z,4.60
2018-09-18T03:18:44.574Z,4.30
2018-09-18T03:21:13.522Z,3.97
2018-09-18T03:23:42.349Z,4.37
2018-09-18T03:26:11.353Z,4.40
2018-09-18T03:28:40.381Z,4.30
2018-09-18T03:31:09.167Z,3.97
2018-09-18T03:33:38.407Z,4.60
2018-09-18T03:36:07.130Z,4.40
2018-09-18T03:38:36.043Z,4.30
2018-09-18T03:41:05.716Z,4.03
2018-09-18T03:43:34.496Z,3.83
2018-09-18T03:46:03.757Z,4.27
2018-09-18T03:48:32.911Z,3.93
2018-09-18T03:51:01.867Z,4.07
2018-09-18T03:53:30.693Z,3.60
2018-09-18T03:55:59.332Z,3.97
2018-09-18T03:58:28.843Z,4.20
2018-09-18T04:00:57.665Z,3.83
2018-09-18T04:03:27.319Z,4.00
2018-09-18T04:05:57.202Z,3.97
2018-09-18T04:08:25.953Z,3.90
2018-09-18T04:10:54.800Z,4.47
2018-09-18T04:13:23.535Z,4.20
2018-09-18T04:15:52.285Z,4.20
2018-09-18T04:18:23.587Z,4.20
2018-09-18T04:20:52.109Z,3.97
2018-09-18T04:23:20.906Z,4.00
2018-09-18T04:25:49.892Z,3.70
2018-09-18T04:28:18.678Z,3.83
2018-09-18T04:30:47.462Z,4.30
2018-09-18T04:33:16.224Z,4.83
2018-09-18T04:35:45.034Z,4.00
2018-09-18T04:38:13.922Z,4.30
2018-09-18T04:41:06.883Z,4.43
2018-09-18T04:57:19.238Z,4.43
2018-09-18T04:59:48.377Z,4.00
2018-09-18T05:02:17.410Z,5.10
2018-09-18T05:04:47.332Z,4.77
2018-09-18T05:07:17.241Z,4.23
2018-09-18T05:09:46.250Z,4.40
2018-09-18T05:12:23.923Z,4.70
2018-09-18T05:14:58.701Z,4.43
2018-09-18T05:17:37.442Z,4.80
2018-09-18T05:22:50.086Z,4.80
2018-09-18T05:30:51.498Z,4.57
2018-09-18T06:29:42.663Z,4.90
2018-09-18T06:32:11.927Z,4.33
2018-09-18T06:34:40.484Z,4.20
2018-09-18T06:37:09.404Z,4.20
2018-09-18T06:39:39.752Z,4.60
2018-09-18T06:42:22.892Z,4.93
2018-09-18T06:44:51.687Z,4.70
2018-09-18T06:47:20.154Z,4.90
2018-09-18T06:49:48.865Z,4.67
2018-09-18T06:52:17.267Z,4.80
2018-09-18T06:54:45.927Z,4.57
2018-09-18T06:57:14.575Z,4.80
2018-09-18T06:59:43.213Z,4.07
2018-09-18T07:02:11.759Z,4.70
2018-09-18T07:04:40.203Z,4.53
2018-09-18T07:07:08.839Z,4.30
2018-09-18T07:09:38.390Z,4.00
2018-09-18T07:12:06.905Z,4.60
2018-09-18T07:14:35.300Z,4.20
2018-09-18T07:17:04.276Z,4.80
2018-09-18T07:19:33.391Z,3.70
2018-09-18T07:22:01.926Z,3.80
2018-09-18T07:24:30.392Z,4.43
2018-09-18T07:26:59.013Z,4.63
2018-09-18T07:29:27.415Z,4.20
2018-09-18T07:31:56.137Z,4.50
2018-09-18T07:34:24.642Z,4.60
2018-09-18T07:36:53.364Z,4.50
2018-09-18T07:39:21.854Z,4.87
2018-09-18T07:44:38.689Z,4.20
2018-09-18T07:47:07.185Z,4.30
2018-09-18T07:49:36.071Z,4.43
2018-09-18T07:52:07.734Z,4.83
2018-09-18T07:54:36.366Z,5.17
2018-09-18T07:57:05.173Z,4.73
2018-09-18T07:59:34.476Z,5.13
2018-09-18T08:02:03.495Z,4.60
2018-09-18T08:04:32.046Z,5.10
2018-09-18T08:07:00.734Z,5.77
2018-09-18T08:09:29.221Z,5.87
2018-09-18T08:11:58.649Z,5.60
2018-09-18T08:14:27.202Z,6.70
2018-09-18T08:16:56.209Z,5.97
2018-09-18T08:19:24.993Z,5.73
2018-09-18T08:21:53.866Z,5.97
2018-09-18T08:24:22.606Z,5.40
2018-09-18T08:26:51.448Z,5.57
2018-09-18T08:29:20.133Z,5.40
2018-09-18T08:31:49.066Z,5.73
2018-09-18T08:34:20.553Z,5.00
2018-09-18T08:36:50.078Z,5.47
2018-09-18T08:39:19.583Z,5.17
2018-09-18T08:41:48.678Z,5.10
2018-09-18T08:44:18.783Z,5.40
2018-09-18T08:46:47.449Z,4.67
2018-09-18T08:49:16.877Z,4.87
2018-09-18T08:51:46.010Z,5.40
2018-09-18T08:54:15.167Z,5.70
2018-09-18T08:56:48.402Z,5.20
2018-09-18T08:59:19.808Z,5.70
2018-09-18T09:01:48.441Z,5.33
2018-09-18T09:04:18.829Z,4.77
2018-09-18T09:06:50.036Z,4.50
2018-09-18T09:09:20.463Z,5.00
2018-09-18T09:11:49.988Z,5.13
2018-09-18T09:14:19.692Z,4.87
2018-09-18T09:16:48.773Z,4.23
2018-09-18T09:19:17.820Z,4.53
2018-09-18T09:21:48.192Z,4.37
2018-09-18T09:24:17.203Z,4.77
2018-09-18T09:26:47.994Z,5.10
2018-09-18T09:29:26.123Z,4.27
2018-09-18T09:31:55.673Z,4.27
2018-09-18T09:34:25.314Z,4.47
2018-09-18T09:36:54.201Z,4.70
2018-09-18T09:39:24.165Z,4.37
2018-09-18T09:41:52.893Z,4.10
2018-09-18T09:44:21.991Z,4.20
2018-09-18T09:46:52.266Z,4.47
2018-09-18T09:49:22.715Z,3.90
2018-09-18T09:51:51.274Z,4.70
2018-09-18T09:54:23.528Z,4.97
2018-09-18T09:56:52.397Z,4.37
2018-09-18T09:59:24.240Z,4.90
2018-09-18T10:01:58.281Z,4.40
2018-09-18T10:04:26.858Z,4.60
2018-09-18T10:06:59.644Z,4.00
2018-09-18T10:09:34.036Z,4.70
2018-09-18T10:12:04.270Z,4.73
2018-09-18T10:14:33.079Z,4.60
2018-09-18T10:17:01.829Z,5.03
2018-09-18T10:19:31.192Z,4.97
2018-09-18T10:22:01.272Z,5.00
2018-09-18T10:24:30.113Z,4.90
2018-09-18T10:27:00.399Z,4.90
2018-09-18T10:29:31.084Z,4.97
2018-09-18T10:32:00.296Z,5.80
2018-09-18T10:34:29.264Z,5.80
2018-09-18T10:36:59.638Z,5.77
2018-09-18T10:39:33.262Z,6.30
2018-09-18T10:42:06.627Z,6.47
2018-09-18T10:44:36.808Z,6.63
2018-09-18T10:47:06.110Z,5.50
2018-09-18T10:49:38.431Z,4.63
2018-09-18T10:52:07.768Z,4.90
2018-09-18T10:54:39.593Z,4.77
2018-09-18T10:57:14.875Z,5.13
2018-09-18T10:59:49.688Z,4.90
2018-09-18T11:18:08.501Z,4.50
2018-09-18T11:20:37.972Z,4.57
2018-09-18T11:23:15.034Z,4.70
2018-09-18T11:25:46.709Z,4.53
2018-09-18T11:28:15.969Z,4.53
2018-09-18T11:30:44.598Z,4.13
2018-09-18T11:33:14.208Z,4.83
2018-09-18T11:35:52.419Z,13.93
2018-09-18T11:38:22.095Z,7.77
2018-09-18T11:41:05.296Z,5.63
2018-09-18T11:43:39.252Z,5.40
2018-09-18T11:46:08.005Z,5.20
2018-09-18T11:51:47.496Z,4.70
2018-09-18T11:59:31.425Z,4.30
2018-09-18T12:02:01.628Z,4.60
2018-09-18T12:07:22.739Z,3.80
2018-09-18T12:10:01.629Z,4.20
2018-09-18T12:12:32.393Z,4.20
2018-09-18T12:15:01.178Z,4.17
2018-09-18T12:17:39.992Z,3.50
2018-09-18T12:20:12.781Z,3.80
2018-09-18T12:22:48.025Z,4.03
2018-09-18T12:25:18.921Z,4.07
2018-09-18T12:28:00.431Z,3.57
2018-09-18T12:30:42.418Z,3.40
2018-09-18T12:33:16.665Z,3.80
2018-09-18T12:35:45.866Z,3.43
2018-09-18T12:41:19.362Z,3.73
2018-09-18T12:43:51.630Z,3.80
2018-09-18T12:49:08.900Z,3.60
2018-09-18T12:52:07.319Z,3.63
2018-09-18T12:54:48.951Z,3.33
2018-09-18T12:57:45.568Z,4.00
2018-09-18T13:00:46.858Z,4.20
2018-09-18T14:10:11.479Z,4.20
2018-09-18T14:12:40.043Z,4.20
2018-09-18T14:15:11.277Z,4.83
2018-09-18T14:17:41.086Z,4.97
2018-09-18T14:20:10.796Z,4.60
2018-09-18T14:22:39.321Z,5.10
2018-09-18T14:25:08.015Z,4.60
2018-09-18T14:27:37.250Z,5.00
2018-09-18T14:30:07.865Z,4.80
2018-09-18T14:32:36.401Z,5.27
2018-09-18T14:35:04.793Z,4.87
2018-09-18T14:37:33.330Z,5.23
2018-09-18T14:43:12.161Z,5.27
2018-09-18T14:45:51.661Z,4.63
2018-09-18T14:51:23.438Z,4.60
2018-09-18T14:54:02.262Z,4.87
2018-09-18T14:56:48.166Z,5.10
2018-09-18T14:59:17.628Z,5.73
2018-09-18T15:01:47.486Z,5.27
2018-09-18T15:04:15.897Z,4.90
2018-09-18T15:06:44.371Z,5.70
2018-09-18T15:09:12.954Z,5.60
2018-09-18T15:11:41.435Z,4.70
2018-09-18T15:14:10.756Z,5.87
2018-09-18T15:16:39.157Z,5.40
2018-09-18T15:19:08.583Z,6.07
2018-09-18T15:21:37.207Z,5.43
2018-09-18T15:24:05.528Z,5.13
2018-09-18T15:26:34.888Z,5.13
2018-09-18T15:29:02.984Z,5.40
2018-09-18T15:31:31.492Z,5.23
2018-09-18T15:37:23.442Z,5.27
2018-09-18T15:42:50.407Z,4.70
2018-09-18T15:45:35.966Z,4.90
2018-09-18T15:48:07.077Z,5.40
2018-09-18T15:50:36.351Z,4.53
2018-09-18T15:53:14.941Z,4.70
2018-09-18T15:55:47.769Z,4.67
2018-09-18T16:01:09.648Z,4.30
2018-09-18T16:03:39.871Z,4.60
2018-09-18T16:06:08.590Z,4.57
2018-09-18T16:08:37.215Z,4.60
2018-09-18T16:11:12.490Z,5.00
2018-09-18T16:13:42.012Z,5.20
2018-09-18T16:22:48.730Z,5.17
2018-09-18T16:25:17.110Z,5.20
2018-09-18T16:27:48.469Z,5.73
2018-09-18T16:32:13.863Z,5.47
2018-09-18T16:34:42.632Z,5.13
2018-09-18T16:37:16.239Z,5.07
2018-09-18T16:53:44.885Z,5.50
2018-09-18T16:56:13.319Z,4.30
2018-09-18T16:58:41.444Z,6.73
2018-09-18T17:01:09.826Z,5.63
2018-09-18T17:03:38.408Z,4.97
2018-09-18T17:06:06.929Z,6.00
2018-09-18T17:08:36.558Z,4.90
2018-09-18T17:11:05.496Z,6.30
2018-09-18T17:13:33.925Z,6.17
2018-09-18T17:16:02.457Z,5.23
2018-09-18T17:18:30.989Z,6.20
2018-09-18T17:20:59.344Z,6.03
2018-09-18T17:23:28.188Z,5.70
2018-09-18T17:25:56.814Z,6.17
2018-09-18T17:28:25.406Z,5.60
2018-09-18T17:30:54.080Z,6.53
2018-09-18T17:33:22.545Z,4.90
2018-09-18T17:35:51.041Z,5.13
2018-09-18T17:38:19.158Z,5.37
2018-09-18T17:40:47.564Z,5.63
2018-09-18T17:43:15.869Z,5.00
2018-09-18T17:45:44.368Z,5.60
2018-09-18T17:48:12.891Z,5.73
2018-09-18T17:50:45.224Z,4.90
2018-09-18T17:53:14.463Z,4.63
2018-09-18T17:55:43.554Z,5.27
2018-09-18T17:58:20.522Z,4.33
2018-09-18T18:00:50.059Z,5.23
2018-09-18T18:03:18.846Z,5.10
2018-09-18T18:05:47.437Z,4.17
2018-09-18T18:08:15.808Z,4.47
2018-09-18T18:10:44.251Z,4.00
2018-09-18T18:13:14.642Z,3.60
2018-09-18T18:15:43.441Z,2.97
2018-09-18T18:18:13.305Z,3.73
2018-09-18T18:20:41.940Z,3.80
2018-09-18T18:23:10.167Z,4.00
2018-09-18T18:26:11.098Z,2.93
2018-09-18T18:28:46.354Z,3.47
2018-09-18T18:31:28.272Z,3.63
2018-09-18T18:50:48.394Z,3.43
2018-09-18T18:53:38.606Z,3.43
2018-09-18T19:20:36.635Z,4.10
2018-09-18T19:23:47.095Z,3.63
2018-09-18T19:26:26.216Z,3.63
2018-09-18T19:29:01.258Z,4.10
2018-09-18T19:31:31.625Z,3.53
2018-09-18T19:58:36.294Z,3.27
2018-09-18T20:01:06.591Z,3.60
2018-09-18T20:03:35.546Z,3.73
2018-09-18T20:06:06.205Z,4.27
2018-09-18T20:08:34.873Z,3.50
2018-09-18T20:11:08.413Z,3.27
2018-09-18T20:13:39.486Z,4.10
2018-09-18T20:16:10.702Z,3.63
2018-09-18T20:18:42.691Z,3.40
2018-09-18T20:21:11.547Z,3.83
2018-09-18T20:23:40.888Z,3.73
2018-09-18T20:26:10.296Z,2.87
2018-09-18T20:28:44.273Z,3.47
2018-09-18T20:31:13.831Z,2.97
2018-09-18T20:33:42.329Z,3.50
2018-09-18T20:36:11.090Z,3.20
2018-09-18T20:38:39.726Z,3.23
2018-09-18T20:41:08.244Z,3.10
2018-09-18T20:43:36.736Z,3.10
2018-09-18T20:46:05.466Z,3.00
2018-09-18T20:48:33.932Z,2.80
2018-09-18T20:51:02.640Z,2.47
2018-09-18T20:53:31.247Z,2.57
2018-09-18T20:55:59.707Z,2.80
2018-09-18T20:58:28.270Z,3.20
2018-09-18T21:00:56.904Z,3.67
2018-09-18T21:03:25.427Z,3.07
2018-09-18T21:05:54.155Z,2.80
2018-09-18T21:08:22.768Z,2.93
2018-09-18T21:10:51.370Z,2.90
2018-09-18T21:13:20.041Z,3.10
2018-09-18T21:15:48.894Z,3.13
2018-09-18T21:18:17.544Z,3.00
2018-09-18T21:20:46.123Z,2.70
2018-09-18T21:23:15.667Z,2.63
2018-09-18T21:26:00.498Z,2.50
2018-09-18T21:28:29.845Z,2.67
2018-09-18T21:30:59.016Z,2.90
2018-09-18T21:33:27.789Z,2.20
2018-09-18T21:35:56.476Z,2.90
2018-09-18T21:38:25.250Z,2.30
2018-09-18T21:40:53.940Z,2.40
2018-09-18T21:43:23.913Z,3.10
2018-09-18T21:45:52.712Z,2.13
2018-09-18T21:48:21.166Z,3.40
2018-09-18T21:50:49.839Z,2.50
2018-09-18T21:53:18.538Z,2.10
2018-09-18T21:55:47.095Z,2.10
2018-09-18T21:58:15.881Z,2.10
2018-09-18T22:00:44.423Z,2.10
2018-09-18T22:03:12.993Z,2.20
2018-09-18T22:05:41.499Z,1.97
2018-09-18T22:08:10.488Z,1.87
2018-09-18T22:10:39.318Z,1.73
2018-09-18T22:13:07.743Z,2.13
2018-09-18T22:15:36.117Z,1.97
2018-09-18T22:18:04.899Z,2.30
2018-09-18T22:20:39.797Z,1.90
2018-09-18T22:23:08.520Z,2.40
2018-09-18T22:25:37.069Z,2.13
2018-09-18T22:28:05.442Z,2.27
2018-09-18T22:30:33.777Z,2.17
2018-09-18T22:33:02.302Z,1.90
2018-09-18T22:35:30.973Z,1.70
2018-09-18T22:38:09.430Z,2.30
2018-09-18T22:40:38.039Z,3.17
2018-09-18T22:43:06.632Z,2.23
2018-09-18T22:45:35.092Z,2.60
2018-09-18T22:48:03.488Z,2.40
2018-09-18T22:50:31.948Z,2.30
2018-09-18T22:53:00.403Z,2.10
2018-09-18T22:55:28.781Z,2.27
2018-09-18T22:57:57.315Z,2.47
2018-09-18T23:00:25.926Z,2.20
2018-09-18T23:02:54.859Z,2.23
2018-09-18T23:05:23.756Z,2.40
2018-09-18T23:07:52.176Z,2.37
2018-09-18T23:10:20.787Z,2.10
2018-09-18T23:12:49.245Z,2.57
2018-09-18T23:15:17.752Z,2.20
2018-09-18T23:17:46.344Z,2.70
2018-09-18T23:20:14.717Z,2.50
2018-09-18T23:22:43.056Z,2.57
2018-09-18T23:25:11.531Z,2.50
2018-09-18T23:27:39.921Z,2.53
2018-09-18T23:30:08.325Z,2.50
2018-09-18T23:32:36.634Z,2.53
2018-09-18T23:35:05.178Z,2.50
2018-09-18T23:37:33.596Z,2.27
2018-09-18T23:40:02.041Z,2.80
2018-09-18T23:42:30.432Z,2.80
2018-09-18T23:44:58.844Z,2.77
2018-09-18T23:47:27.217Z,2.33
2018-09-18T23:49:55.654Z,2.37
2018-09-18T23:52:24.004Z,2.53
2018-09-18T23:54:52.449Z,3.00
2018-09-18T23:57:20.954Z,2.97
2018-09-18T23:59:49.272Z,2.77
